sensor_id;sensor_type;location;lat;lon;timestamp;temperature;humidity
24446;DHT22;13347;50.984;5.822;2024-03-06T00:02:13;7.60;1.00
24446;DHT22;13347;50.984;5.822;2024-03-06T00:04:41;7.50;1.00
24446;DHT22;13347;50.984;5.822;2024-03-06T00:07:08;7.50;1.00
24446;DHT22;13347;50.984;5.822;2024-03-06T00:09:35;7.50;1.00
24446;DHT22;13347;50.984;5.822;2024-03-06T00:12:02;7.50;1.00
24446;DHT22;13347;50.984;5.822;2024-03-06T00:14:29;7.50;1.00
24446;DHT22;13347;50.984;5.822;2024-03-06T00:16:57;7.50;1.00
24446;DHT22;13347;50.984;5.822;2024-03-06T00:19:25;7.50;1.00
24446;DHT22;13347;50.984;5.822;2024-03-06T00:21:52;7.50;1.00
24446;DHT22;13347;50.984;5.822;2024-03-06T00:24:19;7.50;1.00
24446;DHT22;13347;50.984;5.822;2024-03-06T00:26:46;7.30;1.00
24446;DHT22;13347;50.984;5.822;2024-03-06T00:29:13;7.30;1.00
24446;DHT22;13347;50.984;5.822;2024-03-06T00:31:42;7.40;1.00
24446;DHT22;13347;50.984;5.822;2024-03-06T00:34:09;7.50;1.00
24446;DHT22;13347;50.984;5.822;2024-03-06T00:36:38;7.40;1.00
24446;DHT22;13347;50.984;5.822;2024-03-06T00:39:05;7.30;1.00
24446;DHT22;13347;50.984;5.822;2024-03-06T00:41:33;7.40;1.00
24446;DHT22;13347;50.984;5.822;2024-03-06T00:44:01;7.40;1.00
24446;DHT22;13347;50.984;5.822;2024-03-06T00:46:28;7.30;1.00
24446;DHT22;13347;50.984;5.822;2024-03-06T00:48:55;7.40;1.00
24446;DHT22;13347;50.984;5.822;2024-03-06T00:51:22;7.50;1.00
24446;DHT22;13347;50.984;5.822;2024-03-06T00:53:51;7.50;1.00
24446;DHT22;13347;50.984;5.822;2024-03-06T00:56:18;7.70;1.00
24446;DHT22;13347;50.984;5.822;2024-03-06T00:58:45;7.70;1.00
24446;DHT22;13347;50.984;5.822;2024-03-06T01:01:12;7.60;1.00
24446;DHT22;13347;50.984;5.822;2024-03-06T01:03:39;7.40;1.00
24446;DHT22;13347;50.984;5.822;2024-03-06T01:06:06;7.20;1.00
24446;DHT22;13347;50.984;5.822;2024-03-06T01:08:33;7.20;1.00
24446;DHT22;13347;50.984;5.822;2024-03-06T01:11:03;7.10;1.00
24446;DHT22;13347;50.984;5.822;2024-03-06T01:13:30;7.10;1.00
24446;DHT22;13347;50.984;5.822;2024-03-06T01:15:57;7.20;1.00
24446;DHT22;13347;50.984;5.822;2024-03-06T01:18:24;7.30;1.00
24446;DHT22;13347;50.984;5.822;2024-03-06T01:20:51;7.20;1.00
24446;DHT22;13347;50.984;5.822;2024-03-06T01:23:18;7.00;1.00
24446;DHT22;13347;50.984;5.822;2024-03-06T01:25:45;7.10;1.00
24446;DHT22;13347;50.984;5.822;2024-03-06T01:28:13;6.90;1.00
24446;DHT22;13347;50.984;5.822;2024-03-06T01:30:40;6.90;1.00
24446;DHT22;13347;50.984;5.822;2024-03-06T01:33:07;6.90;1.00
24446;DHT22;13347;50.984;5.822;2024-03-06T01:35:35;6.90;1.00
24446;DHT22;13347;50.984;5.822;2024-03-06T01:38:02;6.80;1.00
24446;DHT22;13347;50.984;5.822;2024-03-06T01:40:29;6.70;1.00
24446;DHT22;13347;50.984;5.822;2024-03-06T01:42:56;6.70;1.00
24446;DHT22;13347;50.984;5.822;2024-03-06T01:45:24;6.60;1.00
24446;DHT22;13347;50.984;5.822;2024-03-06T01:47:51;6.50;1.00
24446;DHT22;13347;50.984;5.822;2024-03-06T01:50:18;6.50;1.00
24446;DHT22;13347;50.984;5.822;2024-03-06T01:52:45;6.40;1.00
24446;DHT22;13347;50.984;5.822;2024-03-06T01:55:13;6.40;1.00
24446;DHT22;13347;50.984;5.822;2024-03-06T01:57:41;6.30;1.00
24446;DHT22;13347;50.984;5.822;2024-03-06T02:00:08;6.20;1.00
24446;DHT22;13347;50.984;5.822;2024-03-06T02:02:41;6.20;1.00
24446;DHT22;13347;50.984;5.822;2024-03-06T02:05:09;6.20;1.00
24446;DHT22;13347;50.984;5.822;2024-03-06T02:07:36;6.10;1.00
24446;DHT22;13347;50.984;5.822;2024-03-06T02:10:06;6.10;1.00
24446;DHT22;13347;50.984;5.822;2024-03-06T02:12:35;6.10;1.00
24446;DHT22;13347;50.984;5.822;2024-03-06T02:15:02;6.00;1.00
24446;DHT22;13347;50.984;5.822;2024-03-06T02:17:29;5.90;1.00
24446;DHT22;13347;50.984;5.822;2024-03-06T02:19:58;5.90;1.00
24446;DHT22;13347;50.984;5.822;2024-03-06T02:22:26;5.80;1.00
24446;DHT22;13347;50.984;5.822;2024-03-06T02:24:53;5.70;1.00
24446;DHT22;13347;50.984;5.822;2024-03-06T02:27:21;5.70;1.00
24446;DHT22;13347;50.984;5.822;2024-03-06T02:29:48;5.70;1.00
24446;DHT22;13347;50.984;5.822;2024-03-06T02:32:15;5.70;1.00
24446;DHT22;13347;50.984;5.822;2024-03-06T02:34:43;5.70;1.00
24446;DHT22;13347;50.984;5.822;2024-03-06T02:37:10;5.70;1.00
24446;DHT22;13347;50.984;5.822;2024-03-06T02:39:39;5.60;1.00
24446;DHT22;13347;50.984;5.822;2024-03-06T02:42:06;5.50;1.00
24446;DHT22;13347;50.984;5.822;2024-03-06T02:44:33;5.60;1.00
24446;DHT22;13347;50.984;5.822;2024-03-06T02:47:00;5.60;1.00
24446;DHT22;13347;50.984;5.822;2024-03-06T02:49:27;5.60;1.00
24446;DHT22;13347;50.984;5.822;2024-03-06T02:51:54;5.60;1.00
24446;DHT22;13347;50.984;5.822;2024-03-06T02:54:21;5.60;1.00
24446;DHT22;13347;50.984;5.822;2024-03-06T02:56:52;5.50;1.00
24446;DHT22;13347;50.984;5.822;2024-03-06T02:59:19;5.40;1.00
24446;DHT22;13347;50.984;5.822;2024-03-06T03:01:46;5.30;1.00
24446;DHT22;13347;50.984;5.822;2024-03-06T03:04:13;5.30;1.00
24446;DHT22;13347;50.984;5.822;2024-03-06T03:06:40;5.20;1.00
24446;DHT22;13347;50.984;5.822;2024-03-06T03:09:07;5.20;1.00
24446;DHT22;13347;50.984;5.822;2024-03-06T03:11:37;5.20;1.00
24446;DHT22;13347;50.984;5.822;2024-03-06T03:14:06;5.20;1.00
24446;DHT22;13347;50.984;5.822;2024-03-06T03:16:33;5.20;1.00
24446;DHT22;13347;50.984;5.822;2024-03-06T03:19:01;5.00;1.00
24446;DHT22;13347;50.984;5.822;2024-03-06T03:21:28;5.00;1.00
24446;DHT22;13347;50.984;5.822;2024-03-06T03:23:55;5.10;1.00
24446;DHT22;13347;50.984;5.822;2024-03-06T03:26:22;5.10;1.00
24446;DHT22;13347;50.984;5.822;2024-03-06T03:28:49;5.20;1.00
24446;DHT22;13347;50.984;5.822;2024-03-06T03:31:17;5.20;1.00
24446;DHT22;13347;50.984;5.822;2024-03-06T03:33:44;5.00;1.00
24446;DHT22;13347;50.984;5.822;2024-03-06T03:36:11;5.00;1.00
24446;DHT22;13347;50.984;5.822;2024-03-06T03:38:38;4.90;1.00
24446;DHT22;13347;50.984;5.822;2024-03-06T03:41:07;5.00;1.00
24446;DHT22;13347;50.984;5.822;2024-03-06T03:43:34;5.00;1.00
24446;DHT22;13347;50.984;5.822;2024-03-06T03:46:01;5.00;1.00
24446;DHT22;13347;50.984;5.822;2024-03-06T03:48:31;4.80;1.00
24446;DHT22;13347;50.984;5.822;2024-03-06T03:51:01;4.80;1.00
24446;DHT22;13347;50.984;5.822;2024-03-06T03:53:28;4.80;1.00
24446;DHT22;13347;50.984;5.822;2024-03-06T03:55:55;4.90;1.60
24446;DHT22;13347;50.984;5.822;2024-03-06T03:58:22;4.90;1.00
24446;DHT22;13347;50.984;5.822;2024-03-06T04:00:49;5.00;1.00
24446;DHT22;13347;50.984;5.822;2024-03-06T04:03:18;5.00;1.00
24446;DHT22;13347;50.984;5.822;2024-03-06T04:05:48;5.00;1.00
24446;DHT22;13347;50.984;5.822;2024-03-06T04:08:15;4.90;1.00
24446;DHT22;13347;50.984;5.822;2024-03-06T04:10:42;4.90;1.00
24446;DHT22;13347;50.984;5.822;2024-03-06T04:13:10;4.90;1.00
24446;DHT22;13347;50.984;5.822;2024-03-06T04:15:37;4.90;1.00
24446;DHT22;13347;50.984;5.822;2024-03-06T04:18:04;5.00;1.00
24446;DHT22;13347;50.984;5.822;2024-03-06T04:20:31;4.90;1.00
24446;DHT22;13347;50.984;5.822;2024-03-06T04:23:00;4.90;1.00
24446;DHT22;13347;50.984;5.822;2024-03-06T04:25:27;4.90;1.00
24446;DHT22;13347;50.984;5.822;2024-03-06T04:27:54;4.90;1.00
24446;DHT22;13347;50.984;5.822;2024-03-06T04:30:21;4.90;1.00
24446;DHT22;13347;50.984;5.822;2024-03-06T04:32:48;4.90;1.00
24446;DHT22;13347;50.984;5.822;2024-03-06T04:35:15;4.90;1.00
24446;DHT22;13347;50.984;5.822;2024-03-06T04:37:42;4.80;1.00
24446;DHT22;13347;50.984;5.822;2024-03-06T04:40:12;4.80;1.00
24446;DHT22;13347;50.984;5.822;2024-03-06T04:42:45;4.80;1.00
24446;DHT22;13347;50.984;5.822;2024-03-06T04:45:13;4.80;1.00
24446;DHT22;13347;50.984;5.822;2024-03-06T04:47:41;4.80;1.00
24446;DHT22;13347;50.984;5.822;2024-03-06T04:50:08;4.80;1.00
24446;DHT22;13347;50.984;5.822;2024-03-06T04:52:35;4.70;1.00
24446;DHT22;13347;50.984;5.822;2024-03-06T04:55:02;4.70;1.00
24446;DHT22;13347;50.984;5.822;2024-03-06T04:57:31;4.70;1.00
24446;DHT22;13347;50.984;5.822;2024-03-06T04:59:58;4.60;1.00
24446;DHT22;13347;50.984;5.822;2024-03-06T05:02:25;4.60;1.00
24446;DHT22;13347;50.984;5.822;2024-03-06T05:04:52;4.60;1.00
24446;DHT22;13347;50.984;5.822;2024-03-06T05:07:19;4.60;1.00
24446;DHT22;13347;50.984;5.822;2024-03-06T05:09:46;4.50;1.00
24446;DHT22;13347;50.984;5.822;2024-03-06T05:12:13;4.40;1.00
24446;DHT22;13347;50.984;5.822;2024-03-06T05:14:42;4.40;1.00
24446;DHT22;13347;50.984;5.822;2024-03-06T05:17:09;4.40;1.00
24446;DHT22;13347;50.984;5.822;2024-03-06T05:19:36;4.40;1.00
24446;DHT22;13347;50.984;5.822;2024-03-06T05:22:03;4.00;1.00
24446;DHT22;13347;50.984;5.822;2024-03-06T05:24:31;3.70;1.00
24446;DHT22;13347;50.984;5.822;2024-03-06T05:26:58;3.50;16.00
24446;DHT22;13347;50.984;5.822;2024-03-06T05:29:25;3.50;53.80
24446;DHT22;13347;50.984;5.822;2024-03-06T05:31:53;3.80;88.40
24446;DHT22;13347;50.984;5.822;2024-03-06T05:34:21;4.00;79.80
24446;DHT22;13347;50.984;5.822;2024-03-06T05:36:48;4.00;61.80
24446;DHT22;13347;50.984;5.822;2024-03-06T05:39:15;4.10;62.70
24446;DHT22;13347;50.984;5.822;2024-03-06T05:41:43;4.10;58.10
24446;DHT22;13347;50.984;5.822;2024-03-06T05:44:10;4.00;53.50
24446;DHT22;13347;50.984;5.822;2024-03-06T05:46:37;4.00;52.50
24446;DHT22;13347;50.984;5.822;2024-03-06T05:49:06;3.90;54.60
24446;DHT22;13347;50.984;5.822;2024-03-06T05:51:33;3.80;64.70
24446;DHT22;13347;50.984;5.822;2024-03-06T05:54:00;3.70;69.50
24446;DHT22;13347;50.984;5.822;2024-03-06T05:56:27;3.60;78.60
24446;DHT22;13347;50.984;5.822;2024-03-06T05:58:54;3.30;82.50
24446;DHT22;13347;50.984;5.822;2024-03-06T06:01:21;3.10;94.60
24446;DHT22;13347;50.984;5.822;2024-03-06T06:03:48;2.90;99.90
24446;DHT22;13347;50.984;5.822;2024-03-06T06:06:17;2.80;99.90
24446;DHT22;13347;50.984;5.822;2024-03-06T06:08:44;2.70;99.90
24446;DHT22;13347;50.984;5.822;2024-03-06T06:11:11;2.60;99.90
24446;DHT22;13347;50.984;5.822;2024-03-06T06:13:38;2.50;99.90
24446;DHT22;13347;50.984;5.822;2024-03-06T06:16:06;2.50;99.90
24446;DHT22;13347;50.984;5.822;2024-03-06T06:18:33;2.50;99.90
24446;DHT22;13347;50.984;5.822;2024-03-06T06:21:00;2.50;99.90
24446;DHT22;13347;50.984;5.822;2024-03-06T06:23:29;2.60;99.90
24446;DHT22;13347;50.984;5.822;2024-03-06T06:25:56;2.60;99.90
24446;DHT22;13347;50.984;5.822;2024-03-06T06:28:23;2.70;99.90
24446;DHT22;13347;50.984;5.822;2024-03-06T06:30:50;2.70;99.90
24446;DHT22;13347;50.984;5.822;2024-03-06T06:33:18;2.60;99.90
24446;DHT22;13347;50.984;5.822;2024-03-06T06:35:46;2.70;99.90
24446;DHT22;13347;50.984;5.822;2024-03-06T06:38:13;2.70;99.90
24446;DHT22;13347;50.984;5.822;2024-03-06T06:40:41;2.70;99.90
24446;DHT22;13347;50.984;5.822;2024-03-06T06:43:08;2.80;99.90
24446;DHT22;13347;50.984;5.822;2024-03-06T06:45:35;2.90;99.90
24446;DHT22;13347;50.984;5.822;2024-03-06T06:48:03;2.90;99.90
24446;DHT22;13347;50.984;5.822;2024-03-06T06:50:30;2.90;99.90
24446;DHT22;13347;50.984;5.822;2024-03-06T06:52:59;2.80;99.90
24446;DHT22;13347;50.984;5.822;2024-03-06T06:55:26;2.90;99.90
24446;DHT22;13347;50.984;5.822;2024-03-06T06:57:54;3.10;99.90
24446;DHT22;13347;50.984;5.822;2024-03-06T07:00:21;3.20;99.90
24446;DHT22;13347;50.984;5.822;2024-03-06T07:02:50;3.20;99.90
24446;DHT22;13347;50.984;5.822;2024-03-06T07:05:17;3.20;99.90
24446;DHT22;13347;50.984;5.822;2024-03-06T07:07:44;3.20;99.90
24446;DHT22;13347;50.984;5.822;2024-03-06T07:10:11;3.30;99.90
24446;DHT22;13347;50.984;5.822;2024-03-06T07:12:38;3.30;99.90
24446;DHT22;13347;50.984;5.822;2024-03-06T07:15:07;3.30;99.90
24446;DHT22;13347;50.984;5.822;2024-03-06T07:17:34;3.40;99.90
24446;DHT22;13347;50.984;5.822;2024-03-06T07:20:01;3.50;99.90
24446;DHT22;13347;50.984;5.822;2024-03-06T07:22:30;3.60;99.90
24446;DHT22;13347;50.984;5.822;2024-03-06T07:24:59;3.80;99.90
24446;DHT22;13347;50.984;5.822;2024-03-06T07:27:26;4.00;99.90
24446;DHT22;13347;50.984;5.822;2024-03-06T07:29:54;4.10;99.90
24446;DHT22;13347;50.984;5.822;2024-03-06T07:32:22;4.30;99.90
24446;DHT22;13347;50.984;5.822;2024-03-06T07:34:50;4.60;99.90
24446;DHT22;13347;50.984;5.822;2024-03-06T07:37:17;4.80;99.90
24446;DHT22;13347;50.984;5.822;2024-03-06T07:39:45;4.90;99.90
24446;DHT22;13347;50.984;5.822;2024-03-06T07:42:12;5.10;99.90
24446;DHT22;13347;50.984;5.822;2024-03-06T07:44:41;5.20;99.90
24446;DHT22;13347;50.984;5.822;2024-03-06T07:47:07;5.40;99.90
24446;DHT22;13347;50.984;5.822;2024-03-06T07:49:36;5.60;99.90
24446;DHT22;13347;50.984;5.822;2024-03-06T07:52:03;5.80;56.00
24446;DHT22;13347;50.984;5.822;2024-03-06T07:54:30;5.90;1.50
24446;DHT22;13347;50.984;5.822;2024-03-06T07:56:58;6.10;1.00
24446;DHT22;13347;50.984;5.822;2024-03-06T07:59:25;6.20;1.00
24446;DHT22;13347;50.984;5.822;2024-03-06T08:01:52;6.50;1.00
24446;DHT22;13347;50.984;5.822;2024-03-06T08:04:21;6.60;1.00
24446;DHT22;13347;50.984;5.822;2024-03-06T08:06:50;6.70;1.00
24446;DHT22;13347;50.984;5.822;2024-03-06T08:09:17;6.90;1.00
24446;DHT22;13347;50.984;5.822;2024-03-06T08:11:44;7.10;1.00
24446;DHT22;13347;50.984;5.822;2024-03-06T08:14:11;7.30;99.90
24446;DHT22;13347;50.984;5.822;2024-03-06T08:16:40;7.80;99.90
24446;DHT22;13347;50.984;5.822;2024-03-06T08:19:08;8.20;1.00
24446;DHT22;13347;50.984;5.822;2024-03-06T08:21:35;8.20;46.90
24446;DHT22;13347;50.984;5.822;2024-03-06T08:24:04;8.20;99.90
24446;DHT22;13347;50.984;5.822;2024-03-06T08:26:31;8.30;1.00
24446;DHT22;13347;50.984;5.822;2024-03-06T08:28:58;8.40;1.00
24446;DHT22;13347;50.984;5.822;2024-03-06T08:31:25;8.60;99.90
24446;DHT22;13347;50.984;5.822;2024-03-06T08:33:52;8.90;99.90
24446;DHT22;13347;50.984;5.822;2024-03-06T08:36:19;9.20;1.00
24446;DHT22;13347;50.984;5.822;2024-03-06T08:38:46;9.10;1.00
24446;DHT22;13347;50.984;5.822;2024-03-06T08:41:15;9.50;99.90
24446;DHT22;13347;50.984;5.822;2024-03-06T08:43:42;9.70;99.90
24446;DHT22;13347;50.984;5.822;2024-03-06T08:46:09;10.10;1.00
24446;DHT22;13347;50.984;5.822;2024-03-06T08:48:36;10.00;1.00
24446;DHT22;13347;50.984;5.822;2024-03-06T08:51:04;9.90;1.00
24446;DHT22;13347;50.984;5.822;2024-03-06T08:53:36;9.70;1.00
24446;DHT22;13347;50.984;5.822;2024-03-06T08:56:04;9.50;1.00
24446;DHT22;13347;50.984;5.822;2024-03-06T08:58:32;9.70;1.00
24446;DHT22;13347;50.984;5.822;2024-03-06T09:00:59;9.90;1.00
24446;DHT22;13347;50.984;5.822;2024-03-06T09:03:26;10.10;1.00
24446;DHT22;13347;50.984;5.822;2024-03-06T09:05:53;10.40;1.00
24446;DHT22;13347;50.984;5.822;2024-03-06T09:08:20;10.60;1.00
24446;DHT22;13347;50.984;5.822;2024-03-06T09:10:47;11.20;99.90
24446;DHT22;13347;50.984;5.822;2024-03-06T09:13:15;12.20;1.00
24446;DHT22;13347;50.984;5.822;2024-03-06T09:15:43;13.00;1.00
24446;DHT22;13347;50.984;5.822;2024-03-06T09:18:10;13.00;1.00
24446;DHT22;13347;50.984;5.822;2024-03-06T09:20:37;13.20;99.90
24446;DHT22;13347;50.984;5.822;2024-03-06T09:23:04;13.30;99.90
24446;DHT22;13347;50.984;5.822;2024-03-06T09:25:31;13.80;99.90
24446;DHT22;13347;50.984;5.822;2024-03-06T09:27:58;14.10;99.90
24446;DHT22;13347;50.984;5.822;2024-03-06T09:30:30;14.50;1.00
24446;DHT22;13347;50.984;5.822;2024-03-06T09:32:58;14.80;1.00
24446;DHT22;13347;50.984;5.822;2024-03-06T09:35:25;14.60;1.00
24446;DHT22;13347;50.984;5.822;2024-03-06T09:37:52;14.60;1.00
24446;DHT22;13347;50.984;5.822;2024-03-06T09:40:19;14.90;1.00
24446;DHT22;13347;50.984;5.822;2024-03-06T09:42:47;15.30;1.00
24446;DHT22;13347;50.984;5.822;2024-03-06T09:45:14;15.80;1.00
24446;DHT22;13347;50.984;5.822;2024-03-06T09:47:42;16.20;1.00
24446;DHT22;13347;50.984;5.822;2024-03-06T09:50:11;16.70;1.00
24446;DHT22;13347;50.984;5.822;2024-03-06T09:52:38;16.40;1.00
24446;DHT22;13347;50.984;5.822;2024-03-06T09:55:08;16.40;1.00
24446;DHT22;13347;50.984;5.822;2024-03-06T09:57:36;16.50;1.00
24446;DHT22;13347;50.984;5.822;2024-03-06T10:00:03;16.20;1.00
24446;DHT22;13347;50.984;5.822;2024-03-06T10:02:34;16.40;99.90
24446;DHT22;13347;50.984;5.822;2024-03-06T10:05:03;16.50;99.90
24446;DHT22;13347;50.984;5.822;2024-03-06T10:07:32;16.80;99.90
24446;DHT22;13347;50.984;5.822;2024-03-06T10:09:59;16.90;99.90
24446;DHT22;13347;50.984;5.822;2024-03-06T10:12:28;17.20;99.90
24446;DHT22;13347;50.984;5.822;2024-03-06T10:14:55;17.30;99.90
24446;DHT22;13347;50.984;5.822;2024-03-06T10:17:23;16.80;99.90
24446;DHT22;13347;50.984;5.822;2024-03-06T10:19:52;17.20;99.90
24446;DHT22;13347;50.984;5.822;2024-03-06T10:22:19;16.30;99.90
24446;DHT22;13347;50.984;5.822;2024-03-06T10:24:51;16.10;99.90
24446;DHT22;13347;50.984;5.822;2024-03-06T10:27:21;16.60;99.90
24446;DHT22;13347;50.984;5.822;2024-03-06T10:30:00;15.60;59.50
24446;DHT22;13347;50.984;5.822;2024-03-06T10:32:28;16.00;99.90
24446;DHT22;13347;50.984;5.822;2024-03-06T10:34:56;16.80;99.90
24446;DHT22;13347;50.984;5.822;2024-03-06T10:37:23;17.20;99.90
24446;DHT22;13347;50.984;5.822;2024-03-06T10:39:52;17.80;99.90
24446;DHT22;13347;50.984;5.822;2024-03-06T10:42:22;17.60;99.90
24446;DHT22;13347;50.984;5.822;2024-03-06T10:44:51;17.90;99.90
24446;DHT22;13347;50.984;5.822;2024-03-06T10:47:19;17.60;92.30
24446;DHT22;13347;50.984;5.822;2024-03-06T10:49:46;17.30;1.00
24446;DHT22;13347;50.984;5.822;2024-03-06T10:52:14;16.50;1.00
24446;DHT22;13347;50.984;5.822;2024-03-06T10:54:42;15.60;1.00
24446;DHT22;13347;50.984;5.822;2024-03-06T10:57:13;15.00;1.00
24446;DHT22;13347;50.984;5.822;2024-03-06T10:59:40;13.90;1.00
24446;DHT22;13347;50.984;5.822;2024-03-06T11:02:08;13.40;34.50
24446;DHT22;13347;50.984;5.822;2024-03-06T11:04:38;13.00;99.90
24446;DHT22;13347;50.984;5.822;2024-03-06T11:07:06;12.90;99.90
24446;DHT22;13347;50.984;5.822;2024-03-06T11:09:34;12.80;99.90
24446;DHT22;13347;50.984;5.822;2024-03-06T11:12:01;12.70;99.90
24446;DHT22;13347;50.984;5.822;2024-03-06T11:14:31;13.00;1.00
24446;DHT22;13347;50.984;5.822;2024-03-06T11:17:00;13.20;99.90
24446;DHT22;13347;50.984;5.822;2024-03-06T11:19:28;13.00;99.90
24446;DHT22;13347;50.984;5.822;2024-03-06T11:21:55;13.50;99.90
24446;DHT22;13347;50.984;5.822;2024-03-06T11:24:22;14.10;99.90
24446;DHT22;13347;50.984;5.822;2024-03-06T11:26:50;14.70;99.90
24446;DHT22;13347;50.984;5.822;2024-03-06T11:29:17;15.30;99.90
24446;DHT22;13347;50.984;5.822;2024-03-06T11:32:02;16.10;99.90
24446;DHT22;13347;50.984;5.822;2024-03-06T11:34:29;16.50;99.90
24446;DHT22;13347;50.984;5.822;2024-03-06T11:36:57;16.20;99.90
24446;DHT22;13347;50.984;5.822;2024-03-06T11:39:27;16.00;99.90
24446;DHT22;13347;50.984;5.822;2024-03-06T11:41:54;16.10;99.90
24446;DHT22;13347;50.984;5.822;2024-03-06T11:44:22;16.10;99.90
24446;DHT22;13347;50.984;5.822;2024-03-06T11:46:56;16.30;99.90
24446;DHT22;13347;50.984;5.822;2024-03-06T11:49:25;16.30;36.80
24446;DHT22;13347;50.984;5.822;2024-03-06T11:51:55;16.40;1.00
24446;DHT22;13347;50.984;5.822;2024-03-06T11:54:23;16.80;1.00
24446;DHT22;13347;50.984;5.822;2024-03-06T11:56:52;16.20;1.00
24446;DHT22;13347;50.984;5.822;2024-03-06T11:59:20;15.40;1.00
24446;DHT22;13347;50.984;5.822;2024-03-06T12:01:47;15.00;1.00
24446;DHT22;13347;50.984;5.822;2024-03-06T12:04:14;15.10;1.00
24446;DHT22;13347;50.984;5.822;2024-03-06T12:06:43;15.00;1.00
24446;DHT22;13347;50.984;5.822;2024-03-06T12:09:10;15.00;1.00
24446;DHT22;13347;50.984;5.822;2024-03-06T12:11:37;15.50;1.00
24446;DHT22;13347;50.984;5.822;2024-03-06T12:14:04;15.30;1.00
24446;DHT22;13347;50.984;5.822;2024-03-06T12:16:31;15.00;1.00
24446;DHT22;13347;50.984;5.822;2024-03-06T12:18:59;14.30;1.00
24446;DHT22;13347;50.984;5.822;2024-03-06T12:21:27;14.50;1.00
24446;DHT22;13347;50.984;5.822;2024-03-06T12:24:03;15.00;1.00
24446;DHT22;13347;50.984;5.822;2024-03-06T12:26:30;14.60;1.00
24446;DHT22;13347;50.984;5.822;2024-03-06T12:29:07;14.70;1.00
24446;DHT22;13347;50.984;5.822;2024-03-06T12:31:34;15.00;1.00
24446;DHT22;13347;50.984;5.822;2024-03-06T12:34:01;14.50;1.00
24446;DHT22;13347;50.984;5.822;2024-03-06T12:36:29;13.70;1.00
24446;DHT22;13347;50.984;5.822;2024-03-06T12:38:58;13.40;1.00
24446;DHT22;13347;50.984;5.822;2024-03-06T12:41:27;13.40;1.00
24446;DHT22;13347;50.984;5.822;2024-03-06T12:43:55;13.20;1.00
24446;DHT22;13347;50.984;5.822;2024-03-06T12:46:23;13.10;1.00
24446;DHT22;13347;50.984;5.822;2024-03-06T12:48:51;12.90;1.00
24446;DHT22;13347;50.984;5.822;2024-03-06T12:51:18;12.90;1.00
24446;DHT22;13347;50.984;5.822;2024-03-06T12:53:45;13.00;1.00
24446;DHT22;13347;50.984;5.822;2024-03-06T12:56:13;13.10;1.00
24446;DHT22;13347;50.984;5.822;2024-03-06T12:58:41;12.80;1.00
24446;DHT22;13347;50.984;5.822;2024-03-06T13:01:08;12.70;55.50
24446;DHT22;13347;50.984;5.822;2024-03-06T13:03:35;12.80;1.00
24446;DHT22;13347;50.984;5.822;2024-03-06T13:06:02;12.70;1.00
24446;DHT22;13347;50.984;5.822;2024-03-06T13:08:31;12.50;1.00
24446;DHT22;13347;50.984;5.822;2024-03-06T13:10:58;12.40;18.60
24446;DHT22;13347;50.984;5.822;2024-03-06T13:13:25;12.40;11.20
24446;DHT22;13347;50.984;5.822;2024-03-06T13:15:55;12.40;39.10
24446;DHT22;13347;50.984;5.822;2024-03-06T13:18:23;12.30;23.60
24446;DHT22;13347;50.984;5.822;2024-03-06T13:20:51;12.30;99.90
24446;DHT22;13347;50.984;5.822;2024-03-06T13:23:19;12.30;99.90
24446;DHT22;13347;50.984;5.822;2024-03-06T13:25:47;12.30;73.20
24446;DHT22;13347;50.984;5.822;2024-03-06T13:28:14;12.30;81.40
24446;DHT22;13347;50.984;5.822;2024-03-06T13:30:41;12.40;61.40
24446;DHT22;13347;50.984;5.822;2024-03-06T13:33:09;12.30;94.30
24446;DHT22;13347;50.984;5.822;2024-03-06T13:35:37;12.20;99.90
24446;DHT22;13347;50.984;5.822;2024-03-06T13:38:04;12.40;27.50
24446;DHT22;13347;50.984;5.822;2024-03-06T13:40:31;12.40;27.70
24446;DHT22;13347;50.984;5.822;2024-03-06T13:42:58;12.40;66.90
24446;DHT22;13347;50.984;5.822;2024-03-06T13:45:25;12.40;19.80
24446;DHT22;13347;50.984;5.822;2024-03-06T13:47:52;12.30;1.40
24446;DHT22;13347;50.984;5.822;2024-03-06T13:50:20;12.30;4.40
24446;DHT22;13347;50.984;5.822;2024-03-06T13:52:49;12.30;7.90
24446;DHT22;13347;50.984;5.822;2024-03-06T13:55:16;12.40;80.30
24446;DHT22;13347;50.984;5.822;2024-03-06T13:57:43;12.40;70.00
24446;DHT22;13347;50.984;5.822;2024-03-06T14:00:11;12.50;90.20
24446;DHT22;13347;50.984;5.822;2024-03-06T14:02:42;12.50;4.50
24446;DHT22;13347;50.984;5.822;2024-03-06T14:05:11;12.40;21.80
24446;DHT22;13347;50.984;5.822;2024-03-06T14:07:39;12.50;34.30
24446;DHT22;13347;50.984;5.822;2024-03-06T14:10:07;12.50;1.00
24446;DHT22;13347;50.984;5.822;2024-03-06T14:12:35;12.60;1.00
24446;DHT22;13347;50.984;5.822;2024-03-06T14:15:03;12.50;6.50
24446;DHT22;13347;50.984;5.822;2024-03-06T14:17:30;12.60;18.10
24446;DHT22;13347;50.984;5.822;2024-03-06T14:19:57;12.60;1.00
24446;DHT22;13347;50.984;5.822;2024-03-06T14:22:24;12.60;10.00
24446;DHT22;13347;50.984;5.822;2024-03-06T14:24:52;12.60;1.00
24446;DHT22;13347;50.984;5.822;2024-03-06T14:27:20;12.80;1.00
24446;DHT22;13347;50.984;5.822;2024-03-06T14:29:47;12.70;1.00
24446;DHT22;13347;50.984;5.822;2024-03-06T14:32:14;12.70;1.00
24446;DHT22;13347;50.984;5.822;2024-03-06T14:34:41;12.70;1.00
24446;DHT22;13347;50.984;5.822;2024-03-06T14:37:09;12.90;1.00
24446;DHT22;13347;50.984;5.822;2024-03-06T14:39:36;12.90;1.00
24446;DHT22;13347;50.984;5.822;2024-03-06T14:42:04;12.90;1.00
24446;DHT22;13347;50.984;5.822;2024-03-06T14:44:31;12.90;1.00
24446;DHT22;13347;50.984;5.822;2024-03-06T14:46:58;12.70;1.00
24446;DHT22;13347;50.984;5.822;2024-03-06T14:49:26;12.60;1.00
24446;DHT22;13347;50.984;5.822;2024-03-06T14:51:53;12.60;1.00
24446;DHT22;13347;50.984;5.822;2024-03-06T14:54:21;12.50;1.00
24446;DHT22;13347;50.984;5.822;2024-03-06T14:56:48;12.20;1.00
24446;DHT22;13347;50.984;5.822;2024-03-06T14:59:16;12.30;1.00
24446;DHT22;13347;50.984;5.822;2024-03-06T15:01:43;12.20;1.00
24446;DHT22;13347;50.984;5.822;2024-03-06T15:04:12;12.00;1.00
24446;DHT22;13347;50.984;5.822;2024-03-06T15:06:39;12.00;1.00
24446;DHT22;13347;50.984;5.822;2024-03-06T15:09:06;12.30;1.00
24446;DHT22;13347;50.984;5.822;2024-03-06T15:11:37;12.60;1.00
24446;DHT22;13347;50.984;5.822;2024-03-06T15:14:04;12.80;1.00
24446;DHT22;13347;50.984;5.822;2024-03-06T15:16:34;13.00;1.00
24446;DHT22;13347;50.984;5.822;2024-03-06T15:19:01;13.00;1.00
24446;DHT22;13347;50.984;5.822;2024-03-06T15:21:28;13.30;1.00
24446;DHT22;13347;50.984;5.822;2024-03-06T15:23:56;13.10;1.00
24446;DHT22;13347;50.984;5.822;2024-03-06T15:26:23;13.20;1.00
24446;DHT22;13347;50.984;5.822;2024-03-06T15:28:49;13.20;1.00
24446;DHT22;13347;50.984;5.822;2024-03-06T15:31:18;13.30;1.00
24446;DHT22;13347;50.984;5.822;2024-03-06T15:33:46;13.30;1.00
24446;DHT22;13347;50.984;5.822;2024-03-06T15:36:14;13.30;1.00
24446;DHT22;13347;50.984;5.822;2024-03-06T15:38:41;13.00;1.00
24446;DHT22;13347;50.984;5.822;2024-03-06T15:41:08;12.70;1.00
24446;DHT22;13347;50.984;5.822;2024-03-06T15:43:35;12.50;1.00
24446;DHT22;13347;50.984;5.822;2024-03-06T15:46:02;12.60;1.00
24446;DHT22;13347;50.984;5.822;2024-03-06T15:48:30;12.50;1.00
24446;DHT22;13347;50.984;5.822;2024-03-06T15:51:00;12.30;1.00
24446;DHT22;13347;50.984;5.822;2024-03-06T15:53:27;12.30;1.00